sensor_id;sensor_type;location;lat;lon;timestamp;P1;durP1;ratioP1;P2;durP2;ratioP2
6941;SDS011;3510;43.200;27.920;2022-08-01T09:19:07;1.80;;;1.70;;
6941;SDS011;3510;43.200;27.920;2022-08-01T09:21:36;4.60;;;1.50;;
6941;SDS011;3510;43.200;27.920;2022-08-01T09:24:12;1.55;;;1.45;;
6941;SDS011;3510;43.200;27.920;2022-08-01T09:26:41;2.25;;;1.23;;
6941;SDS011;3510;43.200;27.920;2022-08-01T09:29:17;1.00;;;1.00;;
6941;SDS011;3510;43.200;27.920;2022-08-01T09:31:46;1.02;;;1.02;;
6941;SDS011;3510;43.200;27.920;2022-08-01T09:34:14;1.20;;;1.10;;
6941;SDS011;3510;43.200;27.920;2022-08-01T09:36:44;1.00;;;1.00;;
6941;SDS011;3510;43.200;27.920;2022-08-01T09:39:21;1.30;;;0.95;;
6941;SDS011;3510;43.200;27.920;2022-08-01T09:41:51;1.40;;;1.40;;
6941;SDS011;3510;43.200;27.920;2022-08-01T09:44:28;1.40;;;1.30;;
6941;SDS011;3510;43.200;27.920;2022-08-01T09:47:03;1.30;;;1.15;;
6941;SDS011;3510;43.200;27.920;2022-08-01T09:49:31;1.23;;;1.17;;
6941;SDS011;3510;43.200;27.920;2022-08-01T09:52:10;1.98;;;0.90;;
6941;SDS011;3510;43.200;27.920;2022-08-01T09:54:40;2.08;;;1.20;;
6941;SDS011;3510;43.200;27.920;2022-08-01T09:57:10;1.30;;;1.20;;
6941;SDS011;3510;43.200;27.920;2022-08-01T09:59:43;1.20;;;1.10;;
6941;SDS011;3510;43.200;27.920;2022-08-01T10:02:11;4.03;;;1.17;;
6941;SDS011;3510;43.200;27.920;2022-08-01T10:04:46;0.80;;;0.80;;
6941;SDS011;3510;43.200;27.920;2022-08-01T11:52:25;1.40;;;1.10;;
6941;SDS011;3510;43.200;27.920;2022-08-01T11:54:55;0.90;;;0.90;;
6941;SDS011;3510;43.200;27.920;2022-08-01T11:57:28;0.90;;;0.90;;
6941;SDS011;3510;43.200;27.920;2022-08-01T12:00:01;1.25;;;1.25;;
6941;SDS011;3510;43.200;27.920;2022-08-01T12:02:32;1.25;;;1.15;;
6941;SDS011;3510;43.200;27.920;2022-08-01T12:05:01;1.45;;;1.35;;
6941;SDS011;3510;43.200;27.920;2022-08-01T12:07:33;1.67;;;1.10;;
6941;SDS011;3510;43.200;27.920;2022-08-01T12:10:06;1.20;;;1.20;;
6941;SDS011;3510;43.200;27.920;2022-08-01T12:12:35;1.58;;;1.40;;
6941;SDS011;3510;43.200;27.920;2022-08-01T12:15:04;2.17;;;2.08;;
6941;SDS011;3510;43.200;27.920;2022-08-01T12:17:35;1.33;;;1.23;;
6941;SDS011;3510;43.200;27.920;2022-08-01T12:20:04;2.10;;;1.95;;
6941;SDS011;3510;43.200;27.920;2022-08-01T12:22:36;1.33;;;1.30;;
6941;SDS011;3510;43.200;27.920;2022-08-01T12:25:07;1.00;;;1.00;;
6941;SDS011;3510;43.200;27.920;2022-08-01T12:27:36;2.00;;;1.15;;
6941;SDS011;3510;43.200;27.920;2022-08-01T12:30:05;1.48;;;1.38;;
6941;SDS011;3510;43.200;27.920;2022-08-01T12:32:34;1.00;;;1.00;;
6941;SDS011;3510;43.200;27.920;2022-08-01T12:35:03;1.00;;;1.00;;
6941;SDS011;3510;43.200;27.920;2022-08-01T12:37:32;1.17;;;1.17;;
6941;SDS011;3510;43.200;27.920;2022-08-01T12:40:12;3.70;;;1.30;;
6941;SDS011;3510;43.200;27.920;2022-08-01T12:42:55;2.70;;;1.20;;
6941;SDS011;3510;43.200;27.920;2022-08-01T12:45:24;1.23;;;1.20;;
6941;SDS011;3510;43.200;27.920;2022-08-01T12:50:20;2.85;;;1.30;;
6941;SDS011;3510;43.200;27.920;2022-08-01T12:59:01;1.33;;;1.20;;
6941;SDS011;3510;43.200;27.920;2022-08-01T13:01:28;2.90;;;1.65;;
6941;SDS011;3510;43.200;27.920;2022-08-01T13:03:59;3.90;;;1.70;;
6941;SDS011;3510;43.200;27.920;2022-08-01T13:06:29;0.93;;;0.93;;
6941;SDS011;3510;43.200;27.920;2022-08-01T13:09:04;2.88;;;2.58;;
6941;SDS011;3510;43.200;27.920;2022-08-01T13:11:33;2.70;;;1.42;;
6941;SDS011;3510;43.200;27.920;2022-08-01T13:14:01;1.40;;;1.30;;
6941;SDS011;3510;43.200;27.920;2022-08-01T13:16:28;4.35;;;1.45;;
6941;SDS011;3510;43.200;27.920;2022-08-01T13:18:56;5.60;;;1.60;;
6941;SDS011;3510;43.200;27.920;2022-08-01T13:21:24;3.13;;;1.30;;
6941;SDS011;3510;43.200;27.920;2022-08-01T13:24:02;6.78;;;1.70;;
6941;SDS011;3510;43.200;27.920;2022-08-01T13:26:43;4.40;;;1.33;;
6941;SDS011;3510;43.200;27.920;2022-08-01T13:29:12;6.35;;;1.50;;
6941;SDS011;3510;43.200;27.920;2022-08-01T13:31:41;2.15;;;1.30;;
6941;SDS011;3510;43.200;27.920;2022-08-01T13:34:09;3.70;;;1.38;;
6941;SDS011;3510;43.200;27.920;2022-08-01T13:36:37;3.90;;;1.35;;
6941;SDS011;3510;43.200;27.920;2022-08-01T13:39:05;5.90;;;2.42;;
6941;SDS011;3510;43.200;27.920;2022-08-01T13:41:52;2.15;;;2.03;;
6941;SDS011;3510;43.200;27.920;2022-08-01T13:44:19;9.18;;;4.03;;
6941;SDS011;3510;43.200;27.920;2022-08-01T13:46:47;2.85;;;2.05;;
6941;SDS011;3510;43.200;27.920;2022-08-01T13:56:35;3.28;;;3.08;;
6941;SDS011;3510;43.200;27.920;2022-08-01T13:59:03;6.90;;;4.13;;
6941;SDS011;3510;43.200;27.920;2022-08-01T14:01:31;8.43;;;3.63;;
6941;SDS011;3510;43.200;27.920;2022-08-01T14:03:58;2.03;;;1.80;;
6941;SDS011;3510;43.200;27.920;2022-08-01T14:06:26;2.53;;;1.20;;
6941;SDS011;3510;43.200;27.920;2022-08-01T14:08:53;4.80;;;1.80;;
6941;SDS011;3510;43.200;27.920;2022-08-01T14:11:21;9.32;;;1.90;;
6941;SDS011;3510;43.200;27.920;2022-08-01T14:13:48;3.80;;;2.97;;
6941;SDS011;3510;43.200;27.920;2022-08-01T14:16:17;2.60;;;1.90;;
6941;SDS011;3510;43.200;27.920;2022-08-01T14:18:45;2.55;;;2.22;;
6941;SDS011;3510;43.200;27.920;2022-08-01T14:21:12;5.05;;;1.80;;
6941;SDS011;3510;43.200;27.920;2022-08-01T14:23:40;3.67;;;1.95;;
6941;SDS011;3510;43.200;27.920;2022-08-01T14:26:08;5.30;;;1.80;;
6941;SDS011;3510;43.200;27.920;2022-08-01T14:28:36;5.18;;;1.77;;
6941;SDS011;3510;43.200;27.920;2022-08-01T14:31:03;3.75;;;1.80;;
6941;SDS011;3510;43.200;27.920;2022-08-01T14:33:33;5.05;;;2.00;;
6941;SDS011;3510;43.200;27.920;2022-08-01T14:36:00;3.60;;;2.08;;
6941;SDS011;3510;43.200;27.920;2022-08-01T14:38:27;3.05;;;1.98;;
6941;SDS011;3510;43.200;27.920;2022-08-01T14:40:55;4.88;;;1.52;;
6941;SDS011;3510;43.200;27.920;2022-08-01T14:43:24;5.35;;;1.58;;
6941;SDS011;3510;43.200;27.920;2022-08-01T14:45:51;3.47;;;1.73;;
6941;SDS011;3510;43.200;27.920;2022-08-01T14:48:19;2.38;;;1.42;;
6941;SDS011;3510;43.200;27.920;2022-08-01T14:50:48;5.28;;;3.00;;
6941;SDS011;3510;43.200;27.920;2022-08-01T14:53:15;5.22;;;2.35;;
6941;SDS011;3510;43.200;27.920;2022-08-01T14:55:43;3.00;;;1.48;;
6941;SDS011;3510;43.200;27.920;2022-08-01T14:58:10;3.75;;;1.90;;
6941;SDS011;3510;43.200;27.920;2022-08-01T15:00:37;4.68;;;2.10;;
6941;SDS011;3510;43.200;27.920;2022-08-01T15:03:04;2.60;;;2.40;;
6941;SDS011;3510;43.200;27.920;2022-08-01T15:05:31;2.00;;;1.90;;
6941;SDS011;3510;43.200;27.920;2022-08-01T15:08:00;10.50;;;3.15;;
6941;SDS011;3510;43.200;27.920;2022-08-01T15:10:27;2.97;;;2.17;;
6941;SDS011;3510;43.200;27.920;2022-08-01T15:12:57;4.68;;;2.90;;
6941;SDS011;3510;43.200;27.920;2022-08-01T15:15:25;3.60;;;3.40;;
6941;SDS011;3510;43.200;27.920;2022-08-01T15:17:52;3.83;;;3.40;;
6941;SDS011;3510;43.200;27.920;2022-08-01T15:20:19;2.95;;;2.85;;
6941;SDS011;3510;43.200;27.920;2022-08-01T15:22:46;3.15;;;2.97;;
6941;SDS011;3510;43.200;27.920;2022-08-01T15:25:15;3.95;;;3.75;;
6941;SDS011;3510;43.200;27.920;2022-08-01T15:27:42;3.80;;;3.60;;
6941;SDS011;3510;43.200;27.920;2022-08-01T15:30:09;4.25;;;3.78;;
6941;SDS011;3510;43.200;27.920;2022-08-01T15:32:37;4.10;;;3.78;;
6941;SDS011;3510;43.200;27.920;2022-08-01T15:35:05;3.55;;;3.25;;
6941;SDS011;3510;43.200;27.920;2022-08-01T15:37:35;5.10;;;3.45;;
6941;SDS011;3510;43.200;27.920;2022-08-01T15:40:02;3.55;;;3.35;;
6941;SDS011;3510;43.200;27.920;2022-08-01T15:42:32;3.10;;;2.90;;
6941;SDS011;3510;43.200;27.920;2022-08-01T15:44:59;3.47;;;3.35;;
6941;SDS011;3510;43.200;27.920;2022-08-01T15:47:27;3.25;;;3.05;;
6941;SDS011;3510;43.200;27.920;2022-08-01T15:49:54;3.70;;;3.38;;
6941;SDS011;3510;43.200;27.920;2022-08-01T15:52:24;3.55;;;3.38;;
6941;SDS011;3510;43.200;27.920;2022-08-01T15:54:51;3.72;;;3.53;;
6941;SDS011;3510;43.200;27.920;2022-08-01T15:57:18;3.50;;;3.30;;
6941;SDS011;3510;43.200;27.920;2022-08-01T15:59:47;3.60;;;3.40;;
6941;SDS011;3510;43.200;27.920;2022-08-01T16:02:14;3.70;;;3.50;;
6941;SDS011;3510;43.200;27.920;2022-08-01T16:04:41;3.97;;;3.55;;
6941;SDS011;3510;43.200;27.920;2022-08-01T16:09:35;4.00;;;3.70;;
6941;SDS011;3510;43.200;27.920;2022-08-01T16:12:02;4.35;;;4.05;;
6941;SDS011;3510;43.200;27.920;2022-08-01T16:14:29;3.97;;;3.73;;
6941;SDS011;3510;43.200;27.920;2022-08-01T16:16:58;4.22;;;3.83;;
6941;SDS011;3510;43.200;27.920;2022-08-01T16:19:25;3.92;;;3.58;;
6941;SDS011;3510;43.200;27.920;2022-08-01T16:21:52;3.70;;;3.50;;
6941;SDS011;3510;43.200;27.920;2022-08-01T16:24:19;3.90;;;3.70;;
6941;SDS011;3510;43.200;27.920;2022-08-01T16:26:46;3.58;;;3.38;;
6941;SDS011;3510;43.200;27.920;2022-08-01T16:29:13;3.60;;;3.40;;
6941;SDS011;3510;43.200;27.920;2022-08-01T16:31:40;3.47;;;3.25;;
6941;SDS011;3510;43.200;27.920;2022-08-01T16:34:08;3.50;;;3.30;;
6941;SDS011;3510;43.200;27.920;2022-08-01T16:36:35;4.35;;;3.97;;
6941;SDS011;3510;43.200;27.920;2022-08-01T16:39:02;3.72;;;3.47;;
6941;SDS011;3510;43.200;27.920;2022-08-01T16:41:31;4.10;;;3.78;;
6941;SDS011;3510;43.200;27.920;2022-08-01T16:43:58;4.00;;;3.80;;
6941;SDS011;3510;43.200;27.920;2022-08-01T16:46:25;3.55;;;3.35;;
6941;SDS011;3510;43.200;27.920;2022-08-01T16:48:53;2.97;;;2.88;;
6941;SDS011;3510;43.200;27.920;2022-08-01T16:51:22;3.10;;;2.90;;
6941;SDS011;3510;43.200;27.920;2022-08-01T16:53:49;3.22;;;2.88;;
6941;SDS011;3510;43.200;27.920;2022-08-01T16:56:16;3.42;;;3.22;;
6941;SDS011;3510;43.200;27.920;2022-08-01T16:58:44;3.15;;;2.60;;
6941;SDS011;3510;43.200;27.920;2022-08-01T17:01:11;3.05;;;2.85;;
6941;SDS011;3510;43.200;27.920;2022-08-01T17:03:38;3.05;;;2.85;;
6941;SDS011;3510;43.200;27.920;2022-08-01T17:06:05;2.88;;;2.75;;
6941;SDS011;3510;43.200;27.920;2022-08-01T17:08:34;2.42;;;2.20;;
6941;SDS011;3510;43.200;27.920;2022-08-01T17:11:01;3.22;;;2.60;;
6941;SDS011;3510;43.200;27.920;2022-08-01T17:13:28;2.50;;;2.40;;
6941;SDS011;3510;43.200;27.920;2022-08-01T17:15:55;3.20;;;2.90;;
6941;SDS011;3510;43.200;27.920;2022-08-01T17:18:22;2.60;;;2.40;;
